Weather at Willard Field

Public forecast

Using degrees Fahrenheit for public forecast. Weather courtesy of forecast.io.

Closest aviation weather report (METAR) to Willard Field

Closest report is Felts Field, 29.1 nm (54.0 km) NNW. Retrieved 2021/07/27 23:53 UTC (27 minutes ago):

KSFF 272353Z 17005KT 9SM SCT095 BKN110 27/08 A3004 RMK AO2 SLP158 T02670083 10306 20261 51010

Closest aviation forecast (TAF) to Willard Field

Closest forecast is Felts Field, 29.1 nm (54.0 km) NNW. Retrieved 2021-07-28 00:22 UTC (0 seconds ago):

TAF KSFF 272320Z 2800/2824 24008G14KT P6SM VCSH BKN120 OVC200 FM280300 VRB02KT P6SM VCSH BKN150 OVC180 FM281200 16004KT P6SM BKN100 FM281800 21005KT 6SM HZ SCT050